In Rescue
 
Open Full Screen Window  High Contrast Mode
June 22, 2024 9:41 PM CDT
Weather Information
Wind Direction
  ---
Wind Speed
  00 kt (0 mph)
Wind Gust
  00 kt (0 mph)
Altimeter
29.84 in
Visibility
10 SM
Temperature
15° C
59° F
Dewpoint
14° C
57° F
Humidity
94%
Sky Condition
Broken @ 11,000 ft
VFR

METAR KCQM 230241Z AUTO 00000KT 10SM BKN110 15/14 A2984 RMK AO2

FAA Disclaimer: The data displayed is for advisory purposes only and is not to be used for flight planning or operations.